createdAt,value
2018-06-13T00:01:03.962Z,12.96
2018-06-13T00:03:30.959Z,12.89
2018-06-13T00:05:58.081Z,12.89
2018-06-13T00:08:25.973Z,12.92
2018-06-13T00:10:53.065Z,13.03
2018-06-13T00:13:20.137Z,13.05
2018-06-13T00:15:47.246Z,12.96
2018-06-13T00:18:14.336Z,12.93
2018-06-13T00:20:41.386Z,12.95
2018-06-13T00:23:08.489Z,13.01
2018-06-13T00:25:35.603Z,12.96
2018-06-13T00:28:02.618Z,12.98
2018-06-13T00:30:29.645Z,12.98
2018-06-13T00:32:56.666Z,12.95
2018-06-13T00:35:23.676Z,12.91
2018-06-13T00:37:50.690Z,12.82
2018-06-13T00:40:18.114Z,12.84
2018-06-13T00:42:45.137Z,12.80
2018-06-13T00:45:12.150Z,12.76
2018-06-13T00:47:39.249Z,12.79
2018-06-13T00:50:06.295Z,12.75
2018-06-13T00:52:33.401Z,12.77
2018-06-13T00:55:00.409Z,12.76
2018-06-13T00:57:27.521Z,12.70
2018-06-13T00:59:54.702Z,12.71
2018-06-13T01:02:21.787Z,12.66
2018-06-13T01:04:48.817Z,12.65
2018-06-13T01:07:15.914Z,12.68
2018-06-13T01:09:43.010Z,12.69
2018-06-13T01:12:10.134Z,12.67
2018-06-13T01:14:37.142Z,12.52
2018-06-13T01:17:04.259Z,12.54
2018-06-13T01:19:31.364Z,12.58
2018-06-13T01:21:58.367Z,12.72
2018-06-13T01:24:25.386Z,12.66
2018-06-13T01:26:52.489Z,12.60
2018-06-13T01:29:19.610Z,12.61
2018-06-13T01:31:46.728Z,12.74
2018-06-13T01:34:13.809Z,12.77
2018-06-13T01:36:40.854Z,12.83
2018-06-13T01:39:07.942Z,12.84
2018-06-13T01:41:34.965Z,12.66
2018-06-13T01:44:02.127Z,12.66
2018-06-13T01:46:29.221Z,12.72
2018-06-13T01:48:56.255Z,12.87
2018-06-13T01:51:23.288Z,12.79
2018-06-13T01:53:50.293Z,12.76
2018-06-13T01:56:17.337Z,12.66
2018-06-13T01:58:44.426Z,12.70
2018-06-13T02:01:11.445Z,12.65
2018-06-13T02:03:38.781Z,12.71
2018-06-13T02:06:05.785Z,12.71
2018-06-13T02:08:32.785Z,12.75
2018-06-13T02:10:59.806Z,12.68
2018-06-13T02:13:26.815Z,12.63
2018-06-13T02:15:53.817Z,12.66
2018-06-13T02:18:20.814Z,12.67
2018-06-13T02:20:47.865Z,12.72
2018-06-13T02:23:14.901Z,12.79
2018-06-13T02:25:41.988Z,12.79
2018-06-13T02:28:08.995Z,13.06
2018-06-13T02:30:36.009Z,12.83
2018-06-13T02:33:03.135Z,13.01
2018-06-13T02:35:30.146Z,12.93
2018-06-13T02:37:57.142Z,12.84
2018-06-13T02:40:24.141Z,13.00
2018-06-13T02:42:51.258Z,13.08
2018-06-13T02:45:18.362Z,13.12
2018-06-13T02:47:45.466Z,12.91
2018-06-13T02:50:12.468Z,12.91
2018-06-13T02:52:39.593Z,12.93
2018-06-13T02:55:06.830Z,12.88
2018-06-13T02:57:33.833Z,13.02
2018-06-13T03:00:00.872Z,12.99
2018-06-13T03:02:27.909Z,12.94
2018-06-13T03:04:54.955Z,13.02
2018-06-13T03:07:21.979Z,13.01
2018-06-13T03:09:49.232Z,13.00
2018-06-13T03:12:16.315Z,13.02
2018-06-13T03:14:43.330Z,13.01
2018-06-13T03:17:10.344Z,12.97
2018-06-13T03:19:37.372Z,12.96
2018-06-13T03:22:04.463Z,12.90
2018-06-13T03:24:31.471Z,12.95
2018-06-13T03:26:58.461Z,12.94
2018-06-13T03:29:25.569Z,12.84
2018-06-13T03:31:52.578Z,12.92
2018-06-13T03:34:19.649Z,12.94
2018-06-13T03:36:46.773Z,13.00
2018-06-13T03:39:13.822Z,13.01
2018-06-13T03:41:40.895Z,12.98
2018-06-13T03:44:07.919Z,13.03
2018-06-13T03:46:35.091Z,13.00
2018-06-13T03:49:02.185Z,13.08
2018-06-13T03:51:29.277Z,13.10
2018-06-13T03:53:56.316Z,13.06
2018-06-13T03:56:23.313Z,13.14
2018-06-13T03:58:50.333Z,13.20
2018-06-13T04:01:17.415Z,13.17
2018-06-13T04:03:44.529Z,13.15
2018-06-13T04:06:11.641Z,13.24
2018-06-13T04:08:38.676Z,13.25
2018-06-13T04:11:05.784Z,13.20
2018-06-13T04:13:32.875Z,13.14
2018-06-13T04:15:59.898Z,13.14
2018-06-13T04:18:26.924Z,13.12
2018-06-13T04:20:53.944Z,13.20
2018-06-13T04:23:21.014Z,13.17
2018-06-13T04:25:48.037Z,13.16
2018-06-13T04:28:15.046Z,13.23
2018-06-13T04:30:42.146Z,13.36
2018-06-13T04:33:09.178Z,13.29
2018-06-13T04:35:36.195Z,13.30
2018-06-13T04:38:03.219Z,13.39
2018-06-13T04:40:30.334Z,13.36
2018-06-13T04:42:57.446Z,13.37
2018-06-13T04:45:24.618Z,13.55
2018-06-13T04:47:51.802Z,13.58
2018-06-13T04:50:18.809Z,13.46
2018-06-13T04:52:45.935Z,13.41
2018-06-13T04:55:13.030Z,13.73
2018-06-13T04:57:40.056Z,13.82
2018-06-13T05:00:07.232Z,13.97
2018-06-13T05:02:34.492Z,13.71
2018-06-13T05:05:01.682Z,13.79
2018-06-13T05:07:28.718Z,13.79
2018-06-13T05:09:55.740Z,13.76
2018-06-13T05:12:22.791Z,13.99
2018-06-13T05:14:49.827Z,14.03
2018-06-13T05:17:16.826Z,14.07
2018-06-13T05:19:43.835Z,13.94
2018-06-13T05:22:10.985Z,13.94
2018-06-13T05:24:38.065Z,13.84
2018-06-13T05:27:05.075Z,13.91
2018-06-13T05:29:32.114Z,13.97
2018-06-13T05:31:59.170Z,14.08
2018-06-13T05:34:26.247Z,14.15
2018-06-13T05:36:53.374Z,14.26
2018-06-13T05:39:20.431Z,14.24
2018-06-13T05:41:47.792Z,14.18
2018-06-13T05:44:14.807Z,14.19
2018-06-13T05:46:41.852Z,14.16
2018-06-13T05:49:08.875Z,14.35
2018-06-13T05:51:35.911Z,14.23
2018-06-13T05:54:03.044Z,14.27
2018-06-13T05:56:30.074Z,14.20
2018-06-13T05:58:57.167Z,14.19
2018-06-13T06:01:24.416Z,14.12
2018-06-13T06:03:51.667Z,14.12
2018-06-13T06:06:18.774Z,14.17
2018-06-13T06:08:46.002Z,14.30
2018-06-13T06:11:13.005Z,14.33
2018-06-13T06:13:40.035Z,14.44
2018-06-13T06:16:07.072Z,14.48
2018-06-13T06:18:34.171Z,14.33
2018-06-13T06:21:01.911Z,14.39
2018-06-13T06:23:29.111Z,14.53
2018-06-13T06:25:56.224Z,14.86
2018-06-13T06:28:23.253Z,14.83
2018-06-13T06:30:50.363Z,14.83
2018-06-13T06:33:17.387Z,14.85
2018-06-13T06:35:44.484Z,14.89
2018-06-13T06:38:11.660Z,14.91
2018-06-13T06:40:38.782Z,15.00
2018-06-13T06:43:05.785Z,14.98
2018-06-13T06:45:32.859Z,14.95
2018-06-13T06:47:59.886Z,14.89
2018-06-13T06:50:26.910Z,15.03
2018-06-13T06:52:54.055Z,15.04
2018-06-13T06:55:21.155Z,15.03
2018-06-13T06:57:48.266Z,15.01
2018-06-13T07:00:15.579Z,15.04
2018-06-13T07:02:42.736Z,15.19
2018-06-13T07:05:09.892Z,15.08
2018-06-13T07:07:36.944Z,14.94
2018-06-13T07:10:04.081Z,15.01
2018-06-13T07:12:31.221Z,14.91
2018-06-13T07:14:58.276Z,14.90
2018-06-13T07:17:25.395Z,15.22
2018-06-13T07:19:52.615Z,15.33
2018-06-13T07:22:19.645Z,15.47
2018-06-13T07:24:46.674Z,15.49
2018-06-13T07:27:20.602Z,15.68
2018-06-13T07:29:47.717Z,15.50
2018-06-13T07:32:14.823Z,15.51
2018-06-13T07:34:41.932Z,15.42
2018-06-13T07:37:09.026Z,15.46
2018-06-13T07:39:36.061Z,15.52
2018-06-13T07:42:03.200Z,15.51
2018-06-13T07:44:30.197Z,15.47
2018-06-13T07:46:57.239Z,15.58
2018-06-13T07:49:24.277Z,15.63
2018-06-13T07:51:51.295Z,15.65
2018-06-13T07:54:18.404Z,15.63
2018-06-13T07:56:45.573Z,15.81
2018-06-13T07:59:12.671Z,16.03
2018-06-13T08:01:39.774Z,16.16
2018-06-13T08:04:06.810Z,15.88
2018-06-13T08:06:33.909Z,15.91
2018-06-13T08:09:00.932Z,15.86
2018-06-13T08:11:27.945Z,15.86
2018-06-13T08:13:54.957Z,15.91
2018-06-13T08:16:22.095Z,16.01
2018-06-13T08:18:49.426Z,15.90
2018-06-13T08:21:16.435Z,16.05
2018-06-13T08:23:43.571Z,15.98
2018-06-13T08:26:10.715Z,16.10
2018-06-13T08:28:37.698Z,16.41
2018-06-13T08:31:04.818Z,16.59
2018-06-13T08:33:31.907Z,16.50
2018-06-13T08:35:58.993Z,16.44
2018-06-13T08:38:26.027Z,16.46
2018-06-13T08:40:53.218Z,16.35
2018-06-13T08:43:20.569Z,16.33
2018-06-13T08:45:47.699Z,16.47
2018-06-13T08:48:14.734Z,16.78
2018-06-13T08:50:41.758Z,16.93
2018-06-13T08:53:08.925Z,16.90
2018-06-13T08:55:35.939Z,16.81
2018-06-13T08:58:03.019Z,16.79
2018-06-13T09:00:30.163Z,16.61
2018-06-13T09:02:57.229Z,16.65
2018-06-13T09:05:24.449Z,16.43
2018-06-13T09:07:51.701Z,16.45
2018-06-13T09:10:18.796Z,16.65
2018-06-13T09:12:45.973Z,17.02
2018-06-13T09:15:12.994Z,17.15
2018-06-13T09:17:40.096Z,17.27
2018-06-13T09:20:07.527Z,17.38
2018-06-13T09:22:34.584Z,17.39
2018-06-13T09:25:01.820Z,17.31
2018-06-13T09:27:28.932Z,17.21
2018-06-13T09:29:56.055Z,17.24
2018-06-13T09:32:23.141Z,17.46
2018-06-13T09:34:50.177Z,17.41
2018-06-13T09:37:17.210Z,17.54
2018-06-13T09:39:44.313Z,17.58
2018-06-13T09:42:11.342Z,17.39
2018-06-13T09:44:38.672Z,17.73
2018-06-13T09:47:06.904Z,18.34
2018-06-13T09:49:32.746Z,18.00
2018-06-13T09:51:59.768Z,17.73
2018-06-13T09:54:26.906Z,17.51
2018-06-13T09:56:54.016Z,17.47
2018-06-13T09:59:21.141Z,17.50
2018-06-13T10:01:54.428Z,17.33
2018-06-13T10:04:21.570Z,17.49
2018-06-13T10:06:48.659Z,17.27
2018-06-13T10:09:16.158Z,17.19
2018-06-13T10:11:43.673Z,17.21
2018-06-13T10:14:10.784Z,17.11
2018-06-13T10:16:37.919Z,17.21
2018-06-13T10:19:04.948Z,17.17
2018-06-13T10:21:32.053Z,17.11
2018-06-13T10:23:59.162Z,17.61
2018-06-13T10:26:26.289Z,17.95
2018-06-13T10:28:53.424Z,18.12
2018-06-13T10:31:20.533Z,18.15
2018-06-13T10:33:47.547Z,18.17
2018-06-13T10:36:14.559Z,17.85
2018-06-13T10:38:41.572Z,17.88
2018-06-13T10:41:08.603Z,17.75
2018-06-13T10:43:35.632Z,17.68
2018-06-13T10:46:02.668Z,17.70
2018-06-13T10:48:29.698Z,17.73
2018-06-13T10:50:56.807Z,17.61
2018-06-13T10:53:23.875Z,17.61
2018-06-13T10:55:50.974Z,17.56
2018-06-13T10:58:18.016Z,17.53
2018-06-13T11:00:45.073Z,17.45
2018-06-13T11:03:12.385Z,17.44
2018-06-13T11:05:39.408Z,17.35
2018-06-13T11:08:06.510Z,17.36
2018-06-13T11:10:33.629Z,17.24
2018-06-13T11:13:00.806Z,17.31
2018-06-13T11:15:27.815Z,17.35
2018-06-13T11:17:54.862Z,17.50
2018-06-13T11:20:21.948Z,17.74
2018-06-13T11:22:48.913Z,17.72
2018-06-13T11:25:15.961Z,17.96
2018-06-13T11:27:42.983Z,18.12
2018-06-13T11:30:10.010Z,17.97
2018-06-13T11:32:37.213Z,17.98
2018-06-13T11:35:06.402Z,17.92
2018-06-13T11:37:34.065Z,17.94
2018-06-13T11:40:01.091Z,17.86
2018-06-13T11:42:28.115Z,17.49
2018-06-13T11:44:55.453Z,17.65
2018-06-13T11:47:22.474Z,17.50
2018-06-13T11:49:49.513Z,17.21
2018-06-13T11:52:16.954Z,17.27
2018-06-13T11:54:44.042Z,17.40
2018-06-13T11:57:11.234Z,17.29
2018-06-13T11:59:38.523Z,17.25
2018-06-13T12:02:05.539Z,16.97
2018-06-13T12:04:32.746Z,16.86
2018-06-13T12:06:59.776Z,16.87
2018-06-13T12:09:26.912Z,16.92
2018-06-13T12:11:53.927Z,16.95
2018-06-13T12:14:21.041Z,17.08
2018-06-13T12:16:48.221Z,17.04
2018-06-13T12:19:15.258Z,17.08
2018-06-13T12:21:42.310Z,17.15
2018-06-13T12:24:09.355Z,17.04
2018-06-13T12:26:36.434Z,17.03
2018-06-13T12:29:03.689Z,17.04
2018-06-13T12:31:30.762Z,17.18
2018-06-13T12:33:57.981Z,17.23
2018-06-13T12:36:25.037Z,17.42
2018-06-13T12:38:52.486Z,17.43
2018-06-13T12:41:19.513Z,17.38
2018-06-13T12:43:46.621Z,17.16
2018-06-13T12:46:13.658Z,17.01
2018-06-13T12:48:40.682Z,16.87
2018-06-13T12:51:07.705Z,16.92
2018-06-13T12:53:34.725Z,16.56
2018-06-13T12:56:01.917Z,16.42
2018-06-13T12:58:29.018Z,16.42
2018-06-13T13:00:56.102Z,16.32
2018-06-13T13:03:23.412Z,16.32
2018-06-13T13:05:50.453Z,16.39
2018-06-13T13:08:17.503Z,16.52
2018-06-13T13:10:44.509Z,16.67
2018-06-13T13:13:11.821Z,16.51
2018-06-13T13:15:38.895Z,16.36
2018-06-13T13:18:05.920Z,16.31
2018-06-13T13:20:32.990Z,16.43
2018-06-13T13:23:00.142Z,16.52
2018-06-13T13:25:27.165Z,16.51
2018-06-13T13:27:54.313Z,16.73
2018-06-13T13:30:21.328Z,16.75
2018-06-13T13:32:48.329Z,16.76
2018-06-13T13:35:15.368Z,16.85
2018-06-13T13:37:42.509Z,16.88
2018-06-13T13:40:09.898Z,16.70
2018-06-13T13:42:37.006Z,16.74
2018-06-13T13:45:04.113Z,16.65
2018-06-13T13:47:31.129Z,16.67
2018-06-13T13:49:58.701Z,16.72
2018-06-13T13:52:25.725Z,16.88
2018-06-13T13:54:52.749Z,16.86
2018-06-13T13:57:19.864Z,17.15
2018-06-13T13:59:46.971Z,16.97
2018-06-13T14:02:14.097Z,17.00
2018-06-13T14:04:41.289Z,16.95
2018-06-13T14:07:08.398Z,17.05
2018-06-13T14:09:35.413Z,16.98
2018-06-13T14:12:02.539Z,16.95
2018-06-13T14:14:29.791Z,17.20
2018-06-13T14:16:56.963Z,17.09
2018-06-13T14:19:24.089Z,17.19
2018-06-13T14:21:57.975Z,17.19
2018-06-13T14:24:25.094Z,17.27
2018-06-13T14:26:52.109Z,17.37
2018-06-13T14:29:19.279Z,17.54
2018-06-13T14:31:46.470Z,17.55
2018-06-13T14:34:13.594Z,17.65
2018-06-13T14:36:40.649Z,17.66
2018-06-13T14:39:08.956Z,17.64
2018-06-13T14:41:36.019Z,17.71
2018-06-13T14:44:03.109Z,17.55
2018-06-13T14:46:30.212Z,17.66
2018-06-13T14:48:57.329Z,17.43
2018-06-13T14:51:24.473Z,17.29
2018-06-13T14:53:54.221Z,17.22
2018-06-13T14:56:30.760Z,17.26
2018-06-13T14:58:59.259Z,17.25
2018-06-13T15:01:26.394Z,17.31
2018-06-13T15:03:53.492Z,17.30
2018-06-13T15:06:21.007Z,17.25
2018-06-13T15:08:48.148Z,17.41
2018-06-13T15:11:15.259Z,17.38
2018-06-13T15:13:42.279Z,17.26
2018-06-13T15:16:09.399Z,17.08
2018-06-13T15:18:36.417Z,17.09
2018-06-13T15:21:03.459Z,17.13
2018-06-13T15:23:30.695Z,17.04
2018-06-13T15:25:57.784Z,17.13
2018-06-13T15:28:24.800Z,17.00
2018-06-13T15:30:51.966Z,16.99
2018-06-13T15:33:22.738Z,17.01
2018-06-13T15:35:49.747Z,16.98
2018-06-13T15:38:16.890Z,16.82
2018-06-13T15:40:44.334Z,16.77
2018-06-13T15:43:11.421Z,16.68
2018-06-13T15:45:38.445Z,16.86
2018-06-13T15:48:05.593Z,16.73
2018-06-13T15:50:32.673Z,16.64
2018-06-13T15:52:59.687Z,16.56
2018-06-13T15:55:26.759Z,16.39
2018-06-13T15:57:53.800Z,16.57
2018-06-13T16:00:20.826Z,16.61
2018-06-13T16:02:47.992Z,16.58
2018-06-13T16:05:15.046Z,16.70
2018-06-13T16:07:42.121Z,16.63
2018-06-13T16:10:09.158Z,16.63
2018-06-13T16:12:36.270Z,16.72
2018-06-13T16:15:03.309Z,16.49
2018-06-13T16:17:30.483Z,16.53
2018-06-13T16:19:57.532Z,16.55
2018-06-13T16:22:24.643Z,16.47
2018-06-13T16:24:51.806Z,16.65
2018-06-13T16:27:19.002Z,16.37
2018-06-13T16:29:46.097Z,16.23
2018-06-13T16:32:13.402Z,16.18
2018-06-13T16:34:40.509Z,16.20
2018-06-13T16:37:07.540Z,16.20
2018-06-13T16:39:34.577Z,16.21
2018-06-13T16:42:01.815Z,16.21
2018-06-13T16:44:28.850Z,16.19
2018-06-13T16:46:56.332Z,16.18
2018-06-13T16:49:23.429Z,16.20
2018-06-13T16:51:53.725Z,16.07
2018-06-13T16:54:32.237Z,16.12
2018-06-13T16:56:59.339Z,16.18
2018-06-13T16:59:26.622Z,16.20
2018-06-13T17:01:53.847Z,16.10
2018-06-13T17:06:54.598Z,16.03
2018-06-13T17:09:21.705Z,16.09
2018-06-13T17:11:49.291Z,16.12
2018-06-13T17:14:16.306Z,16.06
2018-06-13T17:16:43.417Z,16.07
2018-06-13T17:19:10.563Z,16.08
2018-06-13T17:21:37.674Z,15.99
2018-06-13T17:24:04.698Z,15.88
2018-06-13T17:26:31.808Z,15.90
2018-06-13T17:28:58.999Z,15.87
2018-06-13T17:31:26.242Z,15.81
2018-06-13T17:33:53.397Z,15.83
2018-06-13T17:36:20.537Z,15.90
2018-06-13T17:38:47.571Z,15.86
2018-06-13T17:41:14.679Z,15.86
2018-06-13T17:43:41.714Z,15.86
2018-06-13T17:46:08.799Z,15.74
2018-06-13T17:48:35.817Z,15.69
2018-06-13T17:51:02.999Z,15.63
2018-06-13T17:53:30.131Z,15.57
2018-06-13T17:55:57.149Z,15.55
2018-06-13T17:58:24.169Z,15.45
2018-06-13T18:00:51.194Z,15.47
2018-06-13T18:03:18.643Z,15.56
2018-06-13T18:05:45.653Z,15.52
2018-06-13T18:08:12.669Z,15.53
2018-06-13T18:10:39.806Z,15.43
2018-06-13T18:13:06.898Z,15.41
2018-06-13T18:15:33.982Z,15.48
2018-06-13T18:18:01.080Z,15.42
2018-06-13T18:20:28.109Z,15.31
2018-06-13T18:22:55.170Z,15.21
2018-06-13T18:25:22.214Z,15.30
2018-06-13T18:27:49.303Z,15.29
2018-06-13T18:30:16.406Z,15.33
2018-06-13T18:32:43.598Z,15.25
2018-06-13T18:35:10.717Z,15.29
2018-06-13T18:37:37.824Z,15.28
2018-06-13T18:40:04.931Z,15.28
2018-06-13T18:42:31.960Z,15.26
2018-06-13T18:44:59.006Z,15.20
2018-06-13T18:47:26.291Z,15.20
2018-06-13T18:49:53.530Z,15.23
2018-06-13T18:52:21.094Z,15.22
2018-06-13T18:54:48.118Z,15.18
2018-06-13T18:57:15.126Z,15.17
2018-06-13T18:59:42.708Z,15.15
2018-06-13T19:02:09.725Z,15.25
2018-06-13T19:04:36.865Z,15.29
2018-06-13T19:07:04.071Z,15.02
2018-06-13T19:09:31.189Z,14.99
2018-06-13T19:11:58.317Z,14.92
2018-06-13T19:14:25.402Z,14.91
2018-06-13T19:16:52.410Z,14.90
2018-06-13T19:19:19.829Z,14.90
2018-06-13T19:21:46.935Z,14.84
2018-06-13T19:24:13.966Z,14.83
2018-06-13T19:26:41.065Z,14.88
2018-06-13T19:29:08.105Z,14.93
2018-06-13T19:31:35.301Z,14.84
2018-06-13T19:34:02.484Z,14.87
2018-06-13T19:36:29.559Z,14.86
2018-06-13T19:38:56.558Z,14.91
2018-06-13T19:41:23.569Z,14.92
2018-06-13T19:43:50.678Z,14.90
2018-06-13T19:46:17.694Z,14.83
2018-06-13T19:48:46.337Z,14.83
2018-06-13T19:51:13.516Z,14.75
2018-06-13T19:53:46.211Z,14.71
2018-06-13T19:56:14.662Z,14.59
2018-06-13T19:58:41.750Z,14.63
2018-06-13T20:01:08.879Z,14.61
2018-06-13T20:03:41.569Z,14.58
2018-06-13T20:06:09.010Z,14.59
2018-06-13T20:08:36.456Z,14.66
2018-06-13T20:11:03.616Z,14.61
2018-06-13T20:13:36.475Z,14.56
2018-06-13T20:16:10.480Z,14.55
2018-06-13T20:18:46.304Z,14.53
2018-06-13T20:21:13.469Z,14.43
2018-06-13T20:23:41.653Z,14.43
2018-06-13T20:26:14.534Z,14.40
2018-06-13T20:28:47.234Z,14.37
2018-06-13T20:31:32.372Z,14.36
2018-06-13T20:33:59.641Z,14.40
2018-06-13T20:36:26.732Z,14.37
2018-06-13T20:38:53.770Z,14.30
2018-06-13T20:41:20.778Z,14.33
2018-06-13T20:43:47.869Z,14.33
2018-06-13T20:46:15.050Z,14.25
2018-06-13T20:48:42.066Z,14.19
2018-06-13T20:51:09.155Z,14.19
2018-06-13T20:53:36.119Z,14.19
2018-06-13T20:56:03.145Z,14.21
2018-06-13T20:58:30.334Z,14.21
2018-06-13T21:00:57.498Z,14.21
2018-06-13T21:03:24.601Z,14.20
2018-06-13T21:05:51.619Z,14.19
2018-06-13T21:08:18.706Z,14.22
2018-06-13T21:10:45.725Z,14.19
2018-06-13T21:13:13.093Z,14.30
2018-06-13T21:15:40.375Z,14.26
2018-06-13T21:18:07.385Z,14.25
2018-06-13T21:20:34.670Z,14.27
2018-06-13T21:23:01.711Z,14.15
2018-06-13T21:25:29.076Z,14.30
2018-06-13T21:27:56.101Z,14.30
2018-06-13T21:30:23.386Z,14.26
2018-06-13T21:32:50.477Z,14.21
2018-06-13T21:35:17.579Z,14.22
2018-06-13T21:37:44.919Z,14.14
2018-06-13T21:40:11.948Z,14.23
2018-06-13T21:42:39.389Z,14.15
2018-06-13T21:45:06.516Z,14.06
2018-06-13T21:47:33.609Z,14.15
2018-06-13T21:50:01.453Z,14.10
2018-06-13T21:52:28.843Z,14.07
2018-06-13T21:54:55.874Z,14.07
2018-06-13T21:57:23.053Z,14.02
2018-06-13T21:59:50.168Z,13.93
2018-06-13T22:02:17.249Z,13.87
2018-06-13T22:04:44.341Z,13.79
2018-06-13T22:07:11.359Z,13.80
2018-06-13T22:09:38.462Z,13.85
2018-06-13T22:12:05.588Z,13.89
2018-06-13T22:14:32.627Z,13.84
2018-06-13T22:16:59.627Z,13.87
2018-06-13T22:19:26.841Z,13.80
2018-06-13T22:21:53.896Z,13.80
2018-06-13T22:24:20.921Z,13.75
2018-06-13T22:26:47.935Z,13.75
2018-06-13T22:29:15.068Z,13.68
2018-06-13T22:31:42.159Z,13.80
2018-06-13T22:34:09.260Z,13.73
2018-06-13T22:36:36.394Z,13.70
2018-06-13T22:39:06.103Z,13.75
2018-06-13T22:41:33.105Z,13.62
2018-06-13T22:44:00.204Z,13.50
2018-06-13T22:46:27.309Z,13.45
2018-06-13T22:48:54.707Z,13.42
2018-06-13T22:51:21.822Z,13.39
2018-06-13T22:53:48.946Z,13.35
2018-06-13T22:56:16.174Z,13.39
2018-06-13T22:58:43.262Z,13.45
2018-06-13T23:01:12.017Z,13.46
2018-06-13T23:03:39.234Z,13.46
2018-06-13T23:06:07.520Z,13.45
2018-06-13T23:08:35.402Z,13.41
2018-06-13T23:11:02.573Z,13.49
2018-06-13T23:13:29.593Z,13.46
2018-06-13T23:15:56.640Z,13.45
2018-06-13T23:18:24.510Z,13.43
2018-06-13T23:20:51.514Z,13.47
2018-06-13T23:23:19.466Z,13.54
2018-06-13T23:25:46.466Z,13.46
2018-06-13T23:28:13.474Z,13.41
2018-06-13T23:30:40.582Z,13.49
2018-06-13T23:33:07.713Z,13.49
2018-06-13T23:35:34.721Z,13.48
2018-06-13T23:38:02.009Z,13.44
2018-06-13T23:40:29.039Z,13.45
2018-06-13T23:43:01.003Z,13.42
2018-06-13T23:45:29.359Z,13.45
2018-06-13T23:48:00.180Z,13.47
2018-06-13T23:50:31.279Z,13.59
2018-06-13T23:52:58.474Z,13.56
2018-06-13T23:55:28.176Z,13.54
2018-06-13T23:57:55.350Z,13.53
